Time;durP1;ratioP1;P1;durP2;ratioP2;P2;SDS_P1;SDS_P2;PMS_P1;PMS_P2;Temp;Humidity;BMP_temperature;BMP_pressure;BME280_temperature;BME280_humidity;BME280_pressure;Samples;Min_cycle;Max_cycle;Signal;HPM_P1;HPM_P2
2023/09/02 00:01:12;;;;;;;16.65;10.43;;;;;;;;;;4974245;28;20107;-87
2023/09/02 00:03:40;;;;;;;13.40;9.50;;;;;;;;;;4990973;28;20051;-87
2023/09/02 00:06:11;;;;;;;15.48;10.20;;;;;;;;;;4971136;28;20078;-88
2023/09/02 00:08:53;;;;;;;19.23;10.60;;;;;;;;;;4976656;28;20106;-87
2023/09/02 00:11:22;;;;;;;18.98;10.20;;;;;;;;;;4973498;28;20090;-86
2023/09/02 00:17:47;;;;;;;17.33;10.30;;;;;;;;;;5000240;28;20158;-87
2023/09/02 00:20:31;;;;;;;20.58;11.02;;;;;;;;;;4995981;28;20061;-87
2023/09/02 00:23:06;;;;;;;14.90;10.32;;;;;;;;;;4970722;28;20047;-87
2023/09/02 00:25:36;;;;;;;22.33;10.98;;;;;;;;;;4969366;28;20043;-87
2023/09/02 00:28:05;;;;;;;14.38;9.63;;;;;;;;;;4973168;28;20057;-87
2023/09/02 00:34:03;;;;;;;17.70;11.15;;;;;;;;;;4981066;28;20078;-87
2023/09/02 00:36:39;;;;;;;19.35;12.35;;;;;;;;;;4973291;28;20102;-87
2023/09/02 00:39:34;;;;;;;20.45;12.07;;;;;;;;;;4969650;28;20138;-88
2023/09/02 00:42:16;;;;;;;22.25;13.82;;;;;;;;;;4968121;28;20120;-87
2023/09/02 00:44:47;;;;;;;18.65;10.57;;;;;;;;;;4969661;28;20051;-87
2023/09/02 00:47:20;;;;;;;;;;;;;;;;;;4967857;28;20185;-87
2023/09/02 00:49:51;;;;;;;18.02;11.23;;;;;;;;;;4965418;28;20175;-87
2023/09/02 00:52:24;;;;;;;18.13;10.75;;;;;;;;;;4967194;28;20137;-87
2023/09/02 00:55:00;;;;;;;20.05;12.68;;;;;;;;;;4967663;28;20061;-87
2023/09/02 00:57:32;;;;;;;16.27;12.07;;;;;;;;;;4967010;28;20122;-87
2023/09/02 01:00:13;;;;;;;19.45;11.50;;;;;;;;;;4986379;28;20483;-88
2023/09/02 01:02:49;;;;;;;16.27;11.02;;;;;;;;;;4969306;28;20055;-87
2023/09/02 01:05:17;;;;;;;14.48;10.27;;;;;;;;;;4968123;28;20054;-87
2023/09/02 01:07:50;;;;;;;18.25;11.43;;;;;;;;;;4968865;28;20035;-87
2023/09/02 01:10:19;;;;;;;21.50;11.98;;;;;;;;;;4976732;28;20054;-87
2023/09/02 01:12:48;;;;;;;15.63;11.02;;;;;;;;;;4977831;28;20070;-86
2023/09/02 01:15:24;;;;;;;14.30;9.73;;;;;;;;;;4980352;28;20046;-86
2023/09/02 01:18:02;;;;;;;13.55;9.35;;;;;;;;;;4978924;28;20051;-87
2023/09/02 01:20:51;;;;;;;17.25;9.27;;;;;;;;;;4975145;28;20042;-87
2023/09/02 01:23:50;;;;;;;14.80;9.52;;;;;;;;;;4977358;28;20062;-88
2023/09/02 01:26:36;;;;;;;16.73;10.80;;;;;;;;;;4969719;28;20106;-87
2023/09/02 01:29:09;;;;;;;16.63;10.70;;;;;;;;;;4969549;28;20050;-87
2023/09/02 01:31:37;;;;;;;18.35;11.68;;;;;;;;;;4986713;28;20139;-87
2023/09/02 01:34:07;;;;;;;18.08;11.52;;;;;;;;;;4971913;28;20058;-87
2023/09/02 01:36:50;;;;;;;19.58;13.52;;;;;;;;;;4974750;28;20061;-88
2023/09/02 01:39:37;;;;;;;17.52;11.80;;;;;;;;;;4989425;28;20090;-87
2023/09/02 01:42:09;;;;;;;18.65;11.32;;;;;;;;;;4978742;28;20055;-87
2023/09/02 01:44:41;;;;;;;17.15;10.55;;;;;;;;;;4978318;28;20144;-87
2023/09/02 01:47:24;;;;;;;16.25;11.02;;;;;;;;;;4975318;28;20043;-87
2023/09/02 01:49:56;;;;;;;19.73;10.75;;;;;;;;;;4976455;28;20150;-87
2023/09/02 01:52:29;;;;;;;14.85;9.65;;;;;;;;;;4976379;28;20134;-87
2023/09/02 01:55:05;;;;;;;19.05;10.48;;;;;;;;;;4976367;28;20038;-87
2023/09/02 01:57:33;;;;;;;17.20;10.60;;;;;;;;;;4977664;28;20058;-89
2023/09/02 02:00:10;;;;;;;16.58;11.60;;;;;;;;;;4990499;28;20073;-89
2023/09/02 02:02:38;;;;;;;18.00;11.65;;;;;;;;;;4990111;28;20082;-88
2023/09/02 02:05:19;;;;;;;22.35;12.25;;;;;;;;;;4988055;28;20148;-88
2023/09/02 02:07:48;;;;;;;20.98;13.15;;;;;;;;;;4974164;28;20183;-88
2023/09/02 02:10:28;;;;;;;20.65;12.57;;;;;;;;;;4974044;28;20038;-89
2023/09/02 02:13:06;;;;;;;20.60;12.98;;;;;;;;;;4973535;28;20055;-89
2023/09/02 02:15:37;;;;;;;22.42;13.35;;;;;;;;;;4972330;28;20035;-89
2023/09/02 02:18:08;;;;;;;18.90;12.60;;;;;;;;;;4971533;28;20043;-90
2023/09/02 02:20:56;;;;;;;20.08;13.07;;;;;;;;;;4974441;28;20078;-90
2023/09/02 02:23:32;;;;;;;18.92;11.60;;;;;;;;;;4977679;28;20078;-90
2023/09/02 02:26:03;;;;;;;19.15;12.35;;;;;;;;;;4974733;28;20078;-90
2023/09/02 02:28:36;;;;;;;20.30;12.68;;;;;;;;;;4973703;28;20038;-89
2023/09/02 02:31:08;;;;;;;24.90;13.02;;;;;;;;;;4973338;28;20055;-89
2023/09/02 02:33:37;;;;;;;19.98;13.20;;;;;;;;;;4973110;28;20054;-90
2023/09/02 02:39:29;;;;;;;19.65;11.25;;;;;;;;;;4994253;28;20045;-89
2023/09/02 02:41:59;;;;;;;16.15;10.77;;;;;;;;;;4970948;28;20069;-88
2023/09/02 02:44:27;;;;;;;13.55;9.85;;;;;;;;;;4970985;28;20449;-88
2023/09/02 02:46:59;;;;;;;15.10;9.93;;;;;;;;;;4988119;28;20043;-89
2023/09/02 02:49:29;;;;;;;17.88;10.93;;;;;;;;;;4971843;28;20039;-86
2023/09/02 02:52:01;;;;;;;18.05;11.82;;;;;;;;;;4987688;28;20050;-86
2023/09/02 02:54:38;;;;;;;18.35;11.27;;;;;;;;;;4971703;28;20058;-86
2023/09/02 02:57:13;;;;;;;21.85;12.07;;;;;;;;;;4969575;28;20340;-87
2023/09/02 02:59:50;;;;;;;20.60;11.70;;;;;;;;;;4970705;28;20043;-87
2023/09/02 03:02:26;;;;;;;18.75;11.48;;;;;;;;;;4970492;28;20149;-87
2023/09/02 03:05:03;;;;;;;20.40;10.70;;;;;;;;;;4973942;28;20063;-87
2023/09/02 03:07:43;;;;;;;18.10;11.82;;;;;;;;;;4973794;28;20050;-87
2023/09/02 03:10:17;;;;;;;21.40;12.25;;;;;;;;;;4971192;28;20058;-87
2023/09/02 03:12:51;;;;;;;;;;;;;;;;;;4974076;28;20035;-87
2023/09/02 03:15:34;;;;;;;16.00;10.82;;;;;;;;;;4980124;28;19920;-87
2023/09/02 03:18:15;;;;;;;21.05;12.05;;;;;;;;;;4970030;28;20031;-87
2023/09/02 03:21:06;;;;;;;15.20;10.05;;;;;;;;;;4969237;28;20118;-87
2023/09/02 03:23:46;;;;;;;20.67;11.52;;;;;;;;;;4969475;28;20070;-87
2023/09/02 03:26:29;;;;;;;16.60;11.48;;;;;;;;;;4985180;28;20066;-87
2023/09/02 03:29:00;;;;;;;18.27;12.38;;;;;;;;;;4969330;28;20114;-87
2023/09/02 03:31:41;;;;;;;27.35;12.20;;;;;;;;;;4986287;28;20050;-89
2023/09/02 03:34:14;;;;;;;23.15;11.48;;;;;;;;;;4968734;28;20411;-89
2023/09/02 03:36:58;;;;;;;16.98;11.38;;;;;;;;;;4970989;28;20089;-89
2023/09/02 03:39:38;;;;;;;18.38;10.32;;;;;;;;;;4972584;28;20062;-88
2023/09/02 03:42:06;;;;;;;17.08;11.80;;;;;;;;;;4988181;28;20119;-88
2023/09/02 03:44:47;;;;;;;16.85;10.98;;;;;;;;;;4989768;28;20149;-89
2023/09/02 03:47:15;;;;;;;19.92;11.20;;;;;;;;;;4975451;28;20328;-89
2023/09/02 03:49:44;;;;;;;24.00;13.65;;;;;;;;;;4972923;28;20058;-89
2023/09/02 03:52:15;;;;;;;20.33;12.30;;;;;;;;;;4992300;28;20050;-88
2023/09/02 03:54:46;;;;;;;21.08;12.25;;;;;;;;;;4976118;28;20045;-89
2023/09/02 03:57:16;;;;;;;18.40;11.55;;;;;;;;;;4991583;28;20051;-89
2023/09/02 03:59:46;;;;;;;21.02;11.88;;;;;;;;;;4991827;28;20066;-89
2023/09/02 04:02:30;;;;;;;16.75;11.02;;;;;;;;;;4972004;28;20047;-89
2023/09/02 04:05:02;;;;;;;17.60;11.63;;;;;;;;;;4978814;28;20058;-89
2023/09/02 04:07:38;;;;;;;15.80;11.35;;;;;;;;;;4976148;28;20102;-89
2023/09/02 04:10:13;;;;;;;21.45;13.02;;;;;;;;;;4974325;28;20070;-89
2023/09/02 04:12:43;;;;;;;17.52;11.32;;;;;;;;;;4990734;28;20121;-89
2023/09/02 04:15:11;;;;;;;18.90;11.77;;;;;;;;;;4990611;28;20089;-89
2023/09/02 04:17:39;;;;;;;18.20;12.23;;;;;;;;;;4972252;28;20057;-89
2023/09/02 04:20:10;;;;;;;21.48;12.98;;;;;;;;;;4988756;28;20077;-89
2023/09/02 04:22:39;;;;;;;25.67;12.38;;;;;;;;;;4987955;28;20051;-90
2023/09/02 04:25:55;;;;;;;21.77;12.82;;;;;;;;;;4971861;28;20047;-89
2023/09/02 04:28:36;;;;;;;21.98;13.13;;;;;;;;;;4913773;28;20059;-89
2023/09/02 04:31:13;;;;;;;19.40;13.77;;;;;;;;;;4973949;28;20039;-88
2023/09/02 04:33:44;;;;;;;21.10;13.48;;;;;;;;;;4990614;28;20225;-89
2023/09/02 04:36:12;;;;;;;23.65;15.82;;;;;;;;;;4976998;28;20106;-89
2023/09/02 04:39:11;;;;;;;25.45;16.38;;;;;;;;;;4990205;28;20039;-88
2023/09/02 04:42:00;;;;;;;23.17;14.93;;;;;;;;;;4976869;28;20097;-89
2023/09/02 04:44:28;;;;;;;21.90;13.90;;;;;;;;;;4979186;28;20066;-89
2023/09/02 04:46:56;;;;;;;24.38;15.27;;;;;;;;;;4978364;28;20048;-89
2023/09/02 04:49:25;;;;;;;22.35;15.52;;;;;;;;;;4991756;28;20073;-88
2023/09/02 04:52:22;;;;;;;27.15;15.68;;;;;;;;;;4975417;28;20115;-88
2023/09/02 04:55:06;;;;;;;27.02;17.40;;;;;;;;;;4988263;28;20107;-88
2023/09/02 04:57:40;;;;;;;32.30;18.48;;;;;;;;;;4990739;28;20047;-89
2023/09/02 05:00:28;;;;;;;28.83;17.40;;;;;;;;;;4970148;28;20391;-89
2023/09/02 05:02:56;;;;;;;24.38;13.85;;;;;;;;;;4968023;28;20149;-89
2023/09/02 05:05:25;;;;;;;21.05;13.25;;;;;;;;;;4969651;28;20114;-89
2023/09/02 05:07:59;;;;;;;24.20;16.00;;;;;;;;;;4986895;28;20050;-89
2023/09/02 05:10:37;;;;;;;32.90;18.45;;;;;;;;;;4984518;28;20407;-89
2023/09/02 05:13:41;;;;;;;28.95;17.75;;;;;;;;;;5161723;27;20527;-88
2023/09/02 05:16:27;;;;;;;27.67;17.83;;;;;;;;;;5145552;27;20122;-89
2023/09/02 05:18:56;;;;;;;26.85;17.77;;;;;;;;;;5122925;28;20047;-88
2023/09/02 05:21:29;;;;;;;26.10;18.35;;;;;;;;;;5140375;28;20115;-88
2023/09/02 05:24:00;;;;;;;31.02;19.85;;;;;;;;;;5140117;28;20051;-88
2023/09/02 05:27:02;;;;;;;39.50;23.48;;;;;;;;;;5124860;28;20423;-88
2023/09/02 05:29:30;;;;;;;32.67;20.60;;;;;;;;;;5122680;28;20077;-89
2023/09/02 05:31:59;;;;;;;36.10;20.80;;;;;;;;;;5123670;27;20051;-89
2023/09/02 05:34:30;;;;;;;29.58;18.52;;;;;;;;;;5129282;27;20136;-89
2023/09/02 05:37:05;;;;;;;28.92;19.85;;;;;;;;;;5123213;28;20422;-89
2023/09/02 05:39:46;;;;;;;24.27;14.93;;;;;;;;;;5105036;28;20051;-88
2023/09/02 05:42:20;;;;;;;21.83;15.93;;;;;;;;;;5123209;28;20047;-88
2023/09/02 05:44:56;;;;;;;22.67;17.08;;;;;;;;;;5123849;27;20194;-88
2023/09/02 05:47:25;;;;;;;24.40;17.15;;;;;;;;;;5122092;28;20291;-86
2023/09/02 05:49:53;;;;;;;19.77;14.85;;;;;;;;;;5122912;28;20071;-86
2023/09/02 05:52:37;;;;;;;18.77;13.15;;;;;;;;;;5124398;27;20055;-87
2023/09/02 05:55:06;;;;;;;19.13;12.68;;;;;;;;;;5121924;28;20142;-86
2023/09/02 05:57:34;;;;;;;18.45;12.60;;;;;;;;;;5119123;28;20051;-86
2023/09/02 06:00:05;;;;;;;17.65;12.38;;;;;;;;;;5119440;28;20054;-88
2023/09/02 06:02:34;;;;;;;22.92;14.32;;;;;;;;;;5137445;28;20051;-89
2023/09/02 06:05:14;;;;;;;17.75;11.98;;;;;;;;;;5122020;27;20043;-89
2023/09/02 06:07:46;;;;;;;18.20;12.55;;;;;;;;;;5125338;28;20047;-89
2023/09/02 06:10:18;;;;;;;18.70;12.48;;;;;;;;;;5125638;28;20043;-88
2023/09/02 06:13:10;;;;;;;20.23;11.65;;;;;;;;;;5138385;28;20330;-88
2023/09/02 06:15:42;;;;;;;17.70;11.27;;;;;;;;;;5136017;27;20099;-87
2023/09/02 06:18:42;;;;;;;18.33;12.35;;;;;;;;;;5164535;22;20035;31
2023/09/02 06:21:26;;;;;;;17.77;11.73;;;;;;;;;;5090204;28;20047;-90
2023/09/02 06:23:59;;;;;;;14.30;10.00;;;;;;;;;;5056263;28;20053;-90
2023/09/02 06:26:41;;;;;;;15.32;11.25;;;;;;;;;;5052321;28;20045;-90
2023/09/02 06:29:23;;;;;;;18.17;9.30;;;;;;;;;;5070158;28;20075;-90
2023/09/02 06:32:06;;;;;;;15.30;9.85;;;;;;;;;;5069892;28;20045;-90
2023/09/02 06:34:41;;;;;;;12.18;8.85;;;;;;;;;;5069659;28;20164;-89
2023/09/02 06:37:17;;;;;;;13.05;9.30;;;;;;;;;;5064456;28;20099;-88
2023/09/02 06:39:54;;;;;;;11.77;8.48;;;;;;;;;;5048442;28;20081;-89
2023/09/02 06:42:33;;;;;;;11.63;8.30;;;;;;;;;;5046198;28;20080;-88
2023/09/02 06:45:08;;;;;;;13.40;8.88;;;;;;;;;;5046813;28;20124;-89
2023/09/02 06:47:44;;;;;;;12.00;8.00;;;;;;;;;;5064343;28;20056;-90
2023/09/02 06:50:24;;;;;;;12.95;8.73;;;;;;;;;;5052033;28;20053;-90
2023/09/02 06:52:54;;;;;;;11.98;8.52;;;;;;;;;;5048513;28;20122;-90
2023/09/02 06:55:24;;;;;;;11.48;8.05;;;;;;;;;;5063133;28;20118;-90
2023/09/02 06:58:14;;;;;;;13.18;9.13;;;;;;;;;;5047856;28;20409;-90
2023/09/02 07:00:55;;;;;;;11.52;7.70;;;;;;;;;;5063577;28;20414;-90
2023/09/02 07:03:24;;;;;;;19.25;8.75;;;;;;;;;;5062677;28;20049;-89
2023/09/02 07:06:27;;;;;;;14.13;8.32;;;;;;;;;;5063356;28;20049;-89
2023/09/02 07:12:29;;;;;;;13.80;7.88;;;;;;;;;;5062019;28;20049;-88
2023/09/02 07:15:17;;;;;;;12.30;7.55;;;;;;;;;;5002241;28;20046;-89
2023/09/02 07:17:58;;;;;;;10.50;7.20;;;;;;;;;;4998351;28;20061;-88
2023/09/02 07:20:39;;;;;;;12.32;6.47;;;;;;;;;;4995397;28;20089;-90
2023/09/02 07:23:15;;;;;;;8.68;6.15;;;;;;;;;;4996618;28;20081;-90
2023/09/02 07:26:05;;;;;;;9.70;6.20;;;;;;;;;;4997297;28;20054;-89
2023/09/02 07:28:44;;;;;;;13.35;6.22;;;;;;;;;;4996528;28;20481;-90
2023/09/02 07:31:16;;;;;;;12.45;6.18;;;;;;;;;;4997218;28;20060;-89
2023/09/02 07:33:52;;;;;;;7.07;5.00;;;;;;;;;;4997470;28;20049;-89
2023/09/02 07:36:33;;;;;;;5.72;3.90;;;;;;;;;;4995808;28;20049;-89
2023/09/02 07:39:14;;;;;;;7.75;4.10;;;;;;;;;;4994566;28;20053;-89
2023/09/02 07:41:42;;;;;;;5.97;3.20;;;;;;;;;;4994121;28;20050;-90
2023/09/02 07:44:32;;;;;;;3.75;2.85;;;;;;;;;;4994721;28;20054;-90
2023/09/02 07:47:06;;;;;;;5.35;3.08;;;;;;;;;;5030608;28;20048;-89
2023/09/02 07:49:45;;;;;;;5.30;2.90;;;;;;;;;;5060466;28;20393;-90
2023/09/02 07:52:16;;;;;;;4.95;2.78;;;;;;;;;;5041784;28;20057;-89
2023/09/02 07:54:59;;;;;;;2.50;1.98;;;;;;;;;;5066021;28;20040;-89
2023/09/02 07:57:27;;;;;;;4.03;1.77;;;;;;;;;;5044233;28;20113;-89
2023/09/02 08:00:10;;;;;;;3.67;1.95;;;;;;;;;;5059380;28;20053;-88
2023/09/02 08:02:39;;;;;;;5.07;1.52;;;;;;;;;;5046985;28;20045;-89
2023/09/02 08:05:08;;;;;;;7.78;1.95;;;;;;;;;;5064269;28;20049;-89
2023/09/02 08:07:38;;;;;;;4.28;1.83;;;;;;;;;;5045846;28;20088;-89
2023/09/02 08:10:09;;;;;;;5.28;1.80;;;;;;;;;;5060510;28;20073;-89
2023/09/02 08:12:39;;;;;;;4.00;1.77;;;;;;;;;;5058862;28;20045;-90
2023/09/02 08:15:09;;;;;;;3.47;1.50;;;;;;;;;;5042529;28;20053;-89
2023/09/02 08:17:43;;;;;;;3.33;1.60;;;;;;;;;;5060913;28;20048;-89
2023/09/02 08:20:13;;;;;;;7.00;1.73;;;;;;;;;;5043434;28;20059;-90
2023/09/02 08:22:54;;;;;;;4.05;2.40;;;;;;;;;;5047641;28;20053;-90
2023/09/02 08:25:29;;;;;;;3.28;1.50;;;;;;;;;;5042200;28;20049;-90
2023/09/02 08:28:14;;;;;;;1.90;1.30;;;;;;;;;;5041317;28;20049;-90
2023/09/02 08:30:55;;;;;;;3.72;1.30;;;;;;;;;;5026179;28;20112;-90
2023/09/02 08:33:26;;;;;;;2.83;1.73;;;;;;;;;;5042041;28;20050;-90
2023/09/02 08:36:06;;;;;;;3.40;1.48;;;;;;;;;;5043254;28;20046;-90
2023/09/02 08:38:34;;;;;;;5.43;1.48;;;;;;;;;;5048154;28;20209;-90
2023/09/02 08:41:05;;;;;;;3.38;1.58;;;;;;;;;;5042648;28;20136;-90
2023/09/02 08:43:43;;;;;;;10.52;2.30;;;;;;;;;;5040521;28;20054;-89
2023/09/02 08:46:13;;;;;;;9.15;2.38;;;;;;;;;;5041164;28;20073;-89
2023/09/02 08:48:58;;;;;;;4.82;2.10;;;;;;;;;;5041867;28;20101;-89
2023/09/02 08:51:28;;;;;;;6.30;2.10;;;;;;;;;;5042122;28;20049;-89
2023/09/02 08:53:57;;;;;;;5.38;1.65;;;;;;;;;;5043296;28;20053;-89
2023/09/02 08:56:54;;;;;;;8.60;2.30;;;;;;;;;;5043587;28;20045;-89
2023/09/02 08:59:36;;;;;;;6.85;2.13;;;;;;;;;;5013596;28;20073;-89
2023/09/02 09:02:04;;;;;;;4.10;1.90;;;;;;;;;;5020784;28;20076;-90
2023/09/02 09:04:39;;;;;;;6.40;2.65;;;;;;;;;;5017894;28;20054;-89
2023/09/02 09:07:10;;;;;;;5.68;1.92;;;;;;;;;;5031859;28;20140;-90
2023/09/02 09:09:41;;;;;;;3.90;2.45;;;;;;;;;;5019695;28;20140;-89
2023/09/02 09:12:11;;;;;;;4.68;2.08;;;;;;;;;;5027659;28;20186;-89
2023/09/02 09:14:45;;;;;;;9.40;2.28;;;;;;;;;;5019336;28;20145;-89
2023/09/02 09:17:15;;;;;;;5.68;2.70;;;;;;;;;;5018368;28;20210;-90
2023/09/02 09:19:45;;;;;;;8.90;3.20;;;;;;;;;;5016844;28;20070;-90
2023/09/02 09:22:15;;;;;;;7.30;3.72;;;;;;;;;;5015759;28;20315;-90
2023/09/02 09:24:48;;;;;;;3.97;2.95;;;;;;;;;;5015051;28;20053;-89
2023/09/02 09:27:17;;;;;;;8.55;3.45;;;;;;;;;;5016468;28;20053;-89
2023/09/02 09:29:47;;;;;;;6.30;3.70;;;;;;;;;;5015734;28;20064;-89
2023/09/02 09:32:23;;;;;;;7.38;3.60;;;;;;;;;;5015515;28;20050;-89
2023/09/02 09:34:58;;;;;;;9.88;3.78;;;;;;;;;;5016610;28;20080;-89
2023/09/02 09:37:31;;;;;;;12.85;4.78;;;;;;;;;;5015284;28;20058;-89
2023/09/02 09:40:01;;;;;;;7.38;4.20;;;;;;;;;;5014409;28;20126;-90
2023/09/02 09:42:38;;;;;;;10.15;4.70;;;;;;;;;;5016350;28;20076;-90
2023/09/02 09:45:07;;;;;;;10.63;5.10;;;;;;;;;;5015624;28;20122;-89
2023/09/02 09:47:36;;;;;;;13.27;4.38;;;;;;;;;;5020325;28;20434;-87
2023/09/02 09:50:16;;;;;;;7.80;4.03;;;;;;;;;;5017400;28;20045;-88
2023/09/02 09:53:15;;;;;;;9.25;3.83;;;;;;;;;;5013554;28;20049;-87
2023/09/02 09:55:55;;;;;;;7.75;3.83;;;;;;;;;;5014749;28;20167;-87
2023/09/02 09:58:27;;;;;;;11.10;5.20;;;;;;;;;;5017489;28;20432;-87
2023/09/02 10:01:13;;;;;;;8.23;3.83;;;;;;;;;;5022054;28;20069;-88
2023/09/02 10:03:47;;;;;;;10.02;4.60;;;;;;;;;;5017596;28;20410;-87
2023/09/02 10:06:24;;;;;;;8.07;4.20;;;;;;;;;;5018164;28;20077;-87
2023/09/02 10:09:01;;;;;;;8.73;4.28;;;;;;;;;;5019133;28;20328;-87
2023/09/02 10:11:37;;;;;;;11.38;4.50;;;;;;;;;;5017923;28;20053;-87
2023/09/02 10:14:10;;;;;;;7.72;3.38;;;;;;;;;;5020367;28;20064;-89
2023/09/02 10:17:12;;;;;;;6.38;3.20;;;;;;;;;;5024506;28;20058;-90
2023/09/02 10:19:41;;;;;;;9.18;3.80;;;;;;;;;;5026337;28;20057;-90
2023/09/02 10:22:23;;;;;;;9.15;4.47;;;;;;;;;;5044144;28;20057;-89
2023/09/02 10:24:59;;;;;;;12.43;4.68;;;;;;;;;;5026112;28;20045;-90
2023/09/02 10:27:57;;;;;;;9.50;5.47;;;;;;;;;;5030358;28;20053;-90
2023/09/02 10:30:45;;;;;;;12.30;5.35;;;;;;;;;;5030387;28;20056;-90
2023/09/02 10:33:50;;;;;;;14.43;4.70;;;;;;;;;;5028207;28;20059;-89
2023/09/02 10:36:23;;;;;;;9.20;4.80;;;;;;;;;;5026858;28;20115;-89
2023/09/02 10:38:53;;;;;;;7.80;4.43;;;;;;;;;;5045844;28;20068;-90
2023/09/02 10:41:24;;;;;;;9.73;4.03;;;;;;;;;;5024013;28;20191;-90
2023/09/02 10:44:05;;;;;;;8.18;4.38;;;;;;;;;;5031173;28;20053;-89
2023/09/02 10:46:38;;;;;;;9.88;4.32;;;;;;;;;;5024831;28;20118;-90
2023/09/02 10:49:08;;;;;;;7.13;3.72;;;;;;;;;;5046265;28;20195;-90
2023/09/02 10:51:45;;;;;;;7.93;4.20;;;;;;;;;;5028111;28;20041;-90
2023/09/02 10:54:18;;;;;;;10.20;4.40;;;;;;;;;;5028078;28;20105;-90
2023/09/02 10:56:51;;;;;;;6.20;3.85;;;;;;;;;;5026942;28;20052;-90
2023/09/02 10:59:30;;;;;;;11.27;4.70;;;;;;;;;;5043173;28;20053;-89
2023/09/02 11:02:01;;;;;;;8.45;3.92;;;;;;;;;;5028270;28;20053;-89
2023/09/02 11:04:41;;;;;;;11.35;4.30;;;;;;;;;;5045201;28;20076;-89
2023/09/02 11:07:20;;;;;;;8.48;4.07;;;;;;;;;;5028888;28;20071;-90
2023/09/02 11:09:53;;;;;;;10.77;3.92;;;;;;;;;;5041158;28;20295;-90
2023/09/02 11:12:22;;;;;;;7.53;3.22;;;;;;;;;;5039844;28;20049;-89
2023/09/02 11:15:15;;;;;;;9.77;3.05;;;;;;;;;;5049079;28;20056;-90
2023/09/02 11:17:45;;;;;;;5.95;3.28;;;;;;;;;;5061567;28;20198;-90
2023/09/02 11:20:25;;;;;;;;;;;;;;;;;;;;;
2023/09/02 11:22:55;;;;;;;6.72;2.97;;;;;;;;;;5060074;28;20229;-89
2023/09/02 11:25:37;;;;;;;7.55;3.15;;;;;;;;;;5066916;28;20036;-90
2023/09/02 11:28:24;;;;;;;4.53;2.70;;;;;;;;;;5061914;28;20045;-90
2023/09/02 11:31:06;;;;;;;5.28;2.67;;;;;;;;;;5058250;28;20068;-90
2023/09/02 11:33:47;;;;;;;6.00;3.08;;;;;;;;;;5056767;28;20121;-89
2023/09/02 11:36:18;;;;;;;8.00;2.65;;;;;;;;;;5057153;28;20108;-89
2023/09/02 11:38:54;;;;;;;9.00;2.72;;;;;;;;;;5055272;28;20045;-89
2023/09/02 11:41:25;;;;;;;6.10;3.17;;;;;;;;;;5054810;28;20113;-91
2023/09/02 11:43:53;;;;;;;5.65;3.58;;;;;;;;;;5051306;28;20103;-90
2023/09/02 11:46:23;;;;;;;6.90;3.30;;;;;;;;;;5052790;28;20061;-90
2023/09/02 11:48:57;;;;;;;8.65;3.05;;;;;;;;;;5054437;28;20354;-90
2023/09/02 11:51:32;;;;;;;7.30;3.45;;;;;;;;;;5062036;28;20045;-89
2023/09/02 11:54:11;;;;;;;;;;;;;;;;;;;;;
2023/09/02 11:56:57;;;;;;;6.63;2.70;;;;;;;;;;5052384;28;20261;-90
2023/09/02 11:59:31;;;;;;;5.13;2.80;;;;;;;;;;5052838;28;20310;-88
2023/09/02 12:02:19;;;;;;;;;;;;;;;;;;;;;
2023/09/02 12:04:55;;;;;;;8.88;4.15;;;;;;;;;;5057759;28;20395;-88
2023/09/02 12:07:46;;;;;;;11.35;3.67;;;;;;;;;;5052791;28;20049;-88
2023/09/02 12:10:27;;;;;;;7.30;3.17;;;;;;;;;;5054767;28;20068;-88
2023/09/02 12:13:11;;;;;;;9.65;4.28;;;;;;;;;;5057058;28;20092;-87
2023/09/02 12:15:55;;;;;;;10.15;4.53;;;;;;;;;;5055835;28;20033;-87
2023/09/02 12:18:30;;;;;;;8.85;3.22;;;;;;;;;;5055408;28;20072;-87
2023/09/02 12:21:08;;;;;;;8.30;3.92;;;;;;;;;;5053750;28;20049;-86
2023/09/02 12:23:51;;;;;;;7.07;4.05;;;;;;;;;;5055834;28;20122;-87
2023/09/02 12:26:21;;;;;;;10.40;3.72;;;;;;;;;;5054494;28;20091;-87
2023/09/02 12:29:13;;;;;;;10.27;3.50;;;;;;;;;;5050572;28;20092;-87
2023/09/02 12:31:59;;;;;;;9.75;4.32;;;;;;;;;;5055788;28;20396;-90
2023/09/02 12:34:36;;;;;;;13.20;4.20;;;;;;;;;;5055922;28;20295;-90
2023/09/02 12:37:33;;;;;;;6.75;3.35;;;;;;;;;;4994968;28;20050;-90
2023/09/02 12:40:22;;;;;;;3.28;2.22;;;;;;;;;;4982674;28;20115;-89
2023/09/02 12:43:03;;;;;;;4.95;2.13;;;;;;;;;;4981079;28;20124;-89
2023/09/02 12:45:53;;;;;;;5.30;2.10;;;;;;;;;;4981794;28;20053;-89
2023/09/02 12:48:28;;;;;;;7.07;2.85;;;;;;;;;;4982894;28;20051;-90
2023/09/02 12:50:56;;;;;;;4.63;2.70;;;;;;;;;;4988016;28;20042;-90
2023/09/02 12:53:40;;;;;;;7.78;3.25;;;;;;;;;;5000099;28;20069;-91
2023/09/02 12:56:22;;;;;;;4.72;2.67;;;;;;;;;;5001619;28;20175;-90
2023/09/02 12:59:08;;;;;;;6.00;3.22;;;;;;;;;;5003022;28;20073;-90
2023/09/02 13:01:43;;;;;;;5.03;3.03;;;;;;;;;;4987720;28;20062;-90
2023/09/02 13:04:22;;;;;;;7.95;3.65;;;;;;;;;;4990855;28;20042;-89
2023/09/02 13:06:51;;;;;;;12.15;3.63;;;;;;;;;;5005180;28;20131;-90
2023/09/02 13:09:23;;;;;;;5.53;2.92;;;;;;;;;;5001602;28;20081;-90
2023/09/02 13:12:08;;;;;;;7.63;2.80;;;;;;;;;;4913117;29;20168;-91
2023/09/02 13:14:42;;;;;;;8.52;3.38;;;;;;;;;;4966987;28;20077;-90
2023/09/02 13:17:16;;;;;;;6.22;3.85;;;;;;;;;;5003108;28;20069;-90
2023/09/02 13:19:57;;;;;;;10.30;3.50;;;;;;;;;;5001668;28;20058;-90
2023/09/02 13:22:56;;;;;;;7.40;3.45;;;;;;;;;;5006484;28;20157;-88
2023/09/02 13:25:33;;;;;;;9.20;4.15;;;;;;;;;;5006737;28;20073;-90
2023/09/02 13:28:13;;;;;;;8.38;3.70;;;;;;;;;;5005117;28;20050;-90
2023/09/02 13:30:53;;;;;;;7.60;3.75;;;;;;;;;;4991630;28;20258;-90
2023/09/02 13:33:28;;;;;;;8.18;3.92;;;;;;;;;;4989402;28;20058;-90
2023/09/02 13:36:19;;;;;;;13.43;6.30;;;;;;;;;;4993967;28;20081;-90
2023/09/02 13:38:59;;;;;;;13.50;4.90;;;;;;;;;;4994749;28;20109;-90
2023/09/02 13:41:50;;;;;;;9.43;5.97;;;;;;;;;;4992058;28;20062;-89
2023/09/02 13:44:29;;;;;;;10.45;6.45;;;;;;;;;;4992571;28;20050;-90
2023/09/02 13:47:06;;;;;;;;;;;;;;;;;;4992645;28;20042;-90
2023/09/02 13:49:49;;;;;;;12.18;5.05;;;;;;;;;;5035354;28;19920;-91
2023/09/02 13:52:28;;;;;;;10.50;5.72;;;;;;;;;;5069312;28;20476;-89
2023/09/02 13:55:10;;;;;;;13.27;6.13;;;;;;;;;;5065354;28;20112;-89
2023/09/02 13:57:51;;;;;;;8.77;5.18;;;;;;;;;;5068217;28;20087;-89
2023/09/02 14:00:45;;;;;;;8.80;5.30;;;;;;;;;;5066202;28;20264;-90
2023/09/02 14:03:22;;;;;;;12.70;5.65;;;;;;;;;;5064545;28;20299;-90
2023/09/02 14:05:53;;;;;;;14.27;5.88;;;;;;;;;;5062496;28;20406;-90
2023/09/02 14:08:47;;;;;;;9.93;6.15;;;;;;;;;;5063747;28;20333;-90
2023/09/02 14:11:21;;;;;;;17.25;11.27;;;;;;;;;;5063240;28;20085;-90
2023/09/02 14:13:53;;;;;;;11.90;5.25;;;;;;;;;;5064177;28;20076;-91
2023/09/02 14:16:28;;;;;;;11.10;5.53;;;;;;;;;;5061713;28;20301;-89
2023/09/02 14:19:03;;;;;;;12.13;7.03;;;;;;;;;;5067042;28;20041;-90
2023/09/02 14:21:33;;;;;;;29.02;17.90;;;;;;;;;;5064774;28;20049;-90
2023/09/02 14:24:06;;;;;;;90.05;57.40;;;;;;;;;;5063249;28;20045;-89
2023/09/02 14:26:35;;;;;;;14.15;7.32;;;;;;;;;;5060107;28;20109;-90
2023/09/02 14:29:28;;;;;;;22.73;14.65;;;;;;;;;;5060782;28;20080;-91
2023/09/02 14:31:56;;;;;;;11.25;5.65;;;;;;;;;;5060648;28;20199;-90
2023/09/02 14:34:29;;;;;;;12.93;7.07;;;;;;;;;;5059193;28;20243;-90
2023/09/02 14:37:09;;;;;;;9.38;6.10;;;;;;;;;;5062146;28;20055;-90
2023/09/02 14:39:39;;;;;;;7.50;5.35;;;;;;;;;;5063065;28;20356;-89
2023/09/02 14:42:14;;;;;;;10.32;5.72;;;;;;;;;;5063957;28;20175;-90
2023/09/02 14:44:48;;;;;;;10.82;6.03;;;;;;;;;;5061262;28;20071;-90
2023/09/02 14:47:16;;;;;;;12.43;6.15;;;;;;;;;;5059131;28;20049;-89
2023/09/02 14:49:47;;;;;;;13.32;7.07;;;;;;;;;;5063018;28;20076;-91
2023/09/02 14:52:15;;;;;;;9.82;5.35;;;;;;;;;;5061944;28;20563;-90
2023/09/02 14:54:47;;;;;;;8.93;5.22;;;;;;;;;;5061500;28;20049;-89
2023/09/02 14:57:28;;;;;;;8.38;5.68;;;;;;;;;;5060811;28;20052;-90
2023/09/02 15:00:01;;;;;;;10.73;5.85;;;;;;;;;;5061446;28;20052;-90
2023/09/02 15:02:46;;;;;;;9.52;5.05;;;;;;;;;;5056335;28;20059;-90
2023/09/02 15:05:24;;;;;;;7.40;4.85;;;;;;;;;;5054598;28;20045;-90
2023/09/02 15:08:02;;;;;;;9.90;6.63;;;;;;;;;;5056746;28;20068;-88
2023/09/02 15:10:38;;;;;;;11.68;5.32;;;;;;;;;;5056579;28;20105;-90
2023/09/02 15:13:42;;;;;;;10.55;4.72;;;;;;;;;;5056531;28;20148;-90
2023/09/02 15:16:17;;;;;;;7.45;3.92;;;;;;;;;;5059171;28;20060;-90
2023/09/02 15:18:49;;;;;;;7.45;4.13;;;;;;;;;;5059822;28;20064;-91
2023/09/02 15:21:23;;;;;;;9.07;4.00;;;;;;;;;;5059356;28;20045;-90
2023/09/02 15:24:07;;;;;;;6.53;3.92;;;;;;;;;;5060231;28;20052;-90
2023/09/02 15:26:39;;;;;;;5.45;3.30;;;;;;;;;;5062346;28;20067;-90
2023/09/02 15:29:27;;;;;;;8.65;4.63;;;;;;;;;;5065041;28;20049;-90
2023/09/02 15:32:00;;;;;;;8.02;3.35;;;;;;;;;;5064413;28;20060;-90
2023/09/02 15:35:08;;;;;;;7.35;3.53;;;;;;;;;;5065499;28;20044;-89
2023/09/02 15:37:39;;;;;;;6.57;3.50;;;;;;;;;;5062669;28;20069;-90
2023/09/02 15:40:15;;;;;;;5.70;3.00;;;;;;;;;;5060613;28;20041;-90
2023/09/02 15:42:50;;;;;;;8.57;4.60;;;;;;;;;;5060295;28;20045;-90
2023/09/02 15:45:36;;;;;;;6.97;3.10;;;;;;;;;;5059567;28;20071;-90